Aérodrome :
LOGIN :

S'inscrire | Disclaimer

   EN    FR    IT 

 










Légende :    VFR   VFR Marginal   IFR   IFR Intensif   IFR Très Intensif
Visi : 
Plafond : 
>= 8 km
>= 3000ft
5 à 8 km
1000 à 3000 ft
1500m à 5 km
500 à 1000 ft
800 à 1500m
200 à 500 ft
< 800m
< 200 ft
Symboles :   Orages  Brouillard  Fortes neiges  Fortes précipitations  Vent > 20 kt
SIGMETs :   Divers  Orages  Givrage  Turbulence  Onde Orograph.  Cendres Volcan.






- Altitude de l'aérodrome : 348 ft
- Code IATA : TSR


LRTR - Timisoara

DERNIER METAR :
  • 240930Z 25010KT 9999 SCT010 BKN032 13/11 Q1005

METARs EXPIRÉS :
  • 240900Z 20010KT 8000 BKN011 BKN030 12/11 Q1004
  • 240830Z 21010KT 6000 BKN008 BKN023 12/12 Q1004
  • 240800Z 21009KT 5000 -DZRA BKN008 OVC020 11/11 Q1004
  • 240730Z 21009KT 7000 BKN009 OVC020 11/11 Q1004
  • 240700Z 21008KT 7000 BKN008 OVC020 11/11 Q1004
  • 240630Z 21009KT 7000 BKN007 OVC018 11/11 Q1004
  • 240600Z 21008KT 6000 BKN006 OVC018 11/11 Q1004
  • 240530Z 22008KT 7000 BKN006 OVC017 10/10 Q1004
  • 240500Z 22006KT 6000 BKN005 OVC015 10/10 Q1003

TAF TAF LRTR
Valide du 24 à 06h jusqu'au 25 à 06h UTC


240500Z 2406/2506 22010KT 5000 BR BKN005 OVC015
BECMG 2406/2408 9999 NSW BKN015 BKN030
BECMG 2408/2410 SCT035CB
TEMPO 2410/2415 5000 SHRA
PROB40
TEMPO 2413/2415 VRB22KT TSRA
BECMG 2416/2418 VRB04KT SCT035
PROB30
TEMPO 2418/2421 5000 -RA BR BKN015 BKN035
BECMG 2421/2423 5000 BR
TEMPO 2500/2506 1500 BR BKN005



MET'MAP, la Météo Aéronautique d'un coup d'oeil ! - Copyright ORBIFLY Décembre 2007 - Disclaimer

ORBIFLY MET'MAP TEAM :

Programmation & Développement : Alexandra Zaïnal
Sur une idée originale de : Baudouin d'Aumeries
Soutien technique & logistique : Manuel Goepfert
Assistance : Marc-Olivier Méhu




SOURCES & CREDITS :

   NOAA